Terminal Aerodrome Forecast
Issued by NWS

Home | Current Version | Previous Version | Text Only | Print | Product List | Glossary On
Versions: 1 2 3 4 5 6 7 8 9 10 11 12
504
FTUS43 KMQT 190520
TAFIWD
TAF
KIWD 190520Z 1906/2006 27011KT P6SM SKC
     FM191500 25012G23KT P6SM SKC
     FM192200 22009KT P6SM FEW200
     FM200000 21007KT P6SM FEW250 WS010/22040KT=

USA.gov is the U.S. government's official web portal to all federal, state and local government web resources and services.